Time;durP1;ratioP1;P1;durP2;ratioP2;P2;SDS_P1;SDS_P2;PMS_P1;PMS_P2;Temp;Humidity;BMP_temperature;BMP_pressure;BME280_temperature;BME280_humidity;BME280_pressure;Samples;Min_cycle;Max_cycle;Signal;HPM_P1;HPM_P2
2022/07/02 00:02:25;;;;;;;6.72;2.10;;;17.00;99.90;;;;;;5136353;27;20243;-56
2022/07/02 00:05:00;;;;;;;5.95;1.60;;;16.90;99.90;;;;;;5136490;27;20168;-55
2022/07/02 00:07:26;;;;;;;4.72;2.03;;;16.90;99.90;;;;;;5136310;27;20159;-55
2022/07/02 00:09:54;;;;;;;5.35;2.05;;;17.00;99.90;;;;;;5118009;27;20533;-56
2022/07/02 00:12:20;;;;;;;5.15;2.05;;;16.90;99.90;;;;;;5136782;27;20503;-56
2022/07/02 00:14:51;;;;;;;7.30;2.40;;;17.00;99.90;;;;;;5136220;27;20230;-56
2022/07/02 00:17:17;;;;;;;5.30;1.90;;;17.00;99.90;;;;;;5117659;27;20174;-55
2022/07/02 00:19:43;;;;;;;7.50;2.13;;;17.00;99.90;;;;;;5136114;27;20652;-55
2022/07/02 00:22:10;;;;;;;4.13;1.83;;;17.00;99.90;;;;;;5135985;27;20171;-55
2022/07/02 00:24:39;;;;;;;4.80;1.88;;;17.00;99.90;;;;;;5135805;27;20208;-55
2022/07/02 00:27:08;;;;;;;6.97;1.90;;;16.90;99.90;;;;;;5135601;27;20202;-55
2022/07/02 00:29:39;;;;;;;8.10;2.67;;;16.90;99.90;;;;;;5135565;27;20593;-55
2022/07/02 00:32:05;;;;;;;7.80;2.65;;;16.90;99.90;;;;;;5135804;27;20202;-55
2022/07/02 00:34:34;;;;;;;10.23;2.58;;;17.00;99.90;;;;;;5135743;27;20168;-55
2022/07/02 00:37:00;;;;;;;8.50;2.70;;;17.00;99.90;;;;;;5135703;27;20164;-55
2022/07/02 00:39:26;;;;;;;12.68;2.85;;;16.90;99.90;;;;;;5135664;27;20568;-55
2022/07/02 00:41:54;;;;;;;9.95;2.83;;;16.80;99.90;;;;;;5117567;27;20199;-55
2022/07/02 00:44:22;;;;;;;11.45;3.08;;;16.80;99.90;;;;;;5136156;27;20167;-55
2022/07/02 00:46:48;;;;;;;13.32;3.38;;;16.90;99.90;;;;;;5135477;27;20195;-55
2022/07/02 00:49:14;;;;;;;13.75;3.17;;;16.80;99.90;;;;;;5135071;27;20156;-55
2022/07/02 00:51:40;;;;;;;20.58;2.70;;;16.90;99.90;;;;;;5135414;27;20224;-55
2022/07/02 00:54:05;;;;;;;7.20;2.28;;;16.80;99.90;;;;;;5135451;27;20203;-55
2022/07/02 00:56:32;;;;;;;9.10;2.55;;;16.60;99.90;;;;;;5134548;27;20252;-55
2022/07/02 00:58:58;;;;;;;10.60;2.55;;;16.70;99.90;;;;;;5116852;27;20621;-55
2022/07/02 01:01:24;;;;;;;10.48;2.80;;;16.70;99.90;;;;;;5135106;27;20195;-55
2022/07/02 01:03:52;;;;;;;9.43;3.08;;;16.70;99.90;;;;;;5135582;27;20171;-56
2022/07/02 01:06:18;;;;;;;10.30;2.63;;;16.60;99.90;;;;;;5135325;27;20217;-55
2022/07/02 01:11:32;;;;;;;6.45;2.83;;;16.70;99.90;;;;;;5135101;27;20183;-55
2022/07/02 01:13:57;;;;;;;5.20;2.50;;;16.70;99.90;;;;;;5135275;27;20176;-55
2022/07/02 01:16:23;;;;;;;4.63;2.15;;;16.70;99.90;;;;;;5135315;27;20235;-55
2022/07/02 01:18:50;;;;;;;6.13;2.65;;;16.80;99.90;;;;;;5135295;27;20168;-55
2022/07/02 01:21:15;;;;;;;5.95;2.35;;;16.70;99.90;;;;;;5135061;27;20164;-55
2022/07/02 01:23:41;;;;;;;7.15;2.38;;;16.70;99.90;;;;;;5134730;27;20160;-55
2022/07/02 01:26:07;;;;;;;10.45;2.53;;;16.40;99.90;;;;;;5134558;27;20220;-54
2022/07/02 01:28:32;;;;;;;10.00;2.42;;;16.30;99.90;;;;;;5134761;27;20213;-54
2022/07/02 01:30:58;;;;;;;13.05;2.55;;;16.30;99.90;;;;;;5116350;27;20171;-54
2022/07/02 01:33:24;;;;;;;10.63;2.95;;;16.20;99.90;;;;;;5134543;27;20159;-54
2022/07/02 01:35:49;;;;;;;14.10;2.55;;;16.10;99.90;;;;;;5116403;27;20648;-54
2022/07/02 01:38:15;;;;;;;12.18;2.38;;;16.10;99.90;;;;;;5134496;27;20164;-54
2022/07/02 01:40:41;;;;;;;11.02;2.60;;;16.00;99.90;;;;;;5134490;27;20528;-55
2022/07/02 01:43:07;;;;;;;13.52;3.30;;;16.10;99.90;;;;;;5134404;27;20163;-55
2022/07/02 01:45:32;;;;;;;10.93;2.53;;;16.10;99.90;;;;;;5134316;27;20200;-55
2022/07/02 01:47:58;;;;;;;10.50;2.65;;;15.90;99.90;;;;;;5134338;27;20250;-54
2022/07/02 01:50:24;;;;;;;14.18;2.38;;;15.80;99.90;;;;;;5133693;27;20231;-55
2022/07/02 01:52:51;;;;;;;12.32;2.83;;;15.90;99.90;;;;;;5134607;27;20175;-54
2022/07/02 01:55:17;;;;;;;11.93;2.70;;;15.90;99.90;;;;;;5134171;27;20164;-55
2022/07/02 01:57:42;;;;;;;12.52;2.83;;;15.90;99.90;;;;;;5134120;27;20255;-55
2022/07/02 02:00:12;;;;;;;14.52;2.88;;;15.80;99.90;;;;;;5134395;27;20511;-55
2022/07/02 02:02:38;;;;;;;16.80;3.00;;;15.70;99.90;;;;;;5134309;27;20191;-54
2022/07/02 02:05:03;;;;;;;12.00;3.05;;;15.80;99.90;;;;;;5133888;27;20333;-54
2022/07/02 02:07:30;;;;;;;12.38;2.97;;;15.80;99.90;;;;;;5133940;27;20243;-54
2022/07/02 02:09:56;;;;;;;7.57;2.80;;;15.70;99.90;;;;;;5134087;27;20251;-54
2022/07/02 02:12:21;;;;;;;10.68;2.50;;;15.80;99.90;;;;;;5134420;27;20304;-54
2022/07/02 02:14:47;;;;;;;10.40;2.95;;;15.80;99.90;;;;;;5133833;27;20617;-54
2022/07/02 02:17:12;;;;;;;12.25;3.28;;;15.90;99.90;;;;;;5133934;27;20180;-55
2022/07/02 02:19:38;;;;;;;7.47;3.15;;;15.90;99.90;;;;;;5133659;27;20220;-54
2022/07/02 02:22:04;;;;;;;8.63;3.00;;;15.80;99.90;;;;;;5133716;27;20179;-54
2022/07/02 02:24:30;;;;;;;7.95;2.90;;;15.80;99.90;;;;;;5133468;27;20220;-55
2022/07/02 02:26:55;;;;;;;6.72;3.40;;;15.80;99.90;;;;;;5133594;27;20203;-54
2022/07/02 02:29:22;;;;;;;7.53;2.95;;;15.90;99.90;;;;;;5133767;27;20176;-55
2022/07/02 02:31:47;;;;;;;13.25;3.80;;;15.80;99.90;;;;;;5133412;27;20659;-55
2022/07/02 02:34:13;;;;;;;8.30;2.90;;;15.80;99.90;;;;;;5133445;27;20164;-54
2022/07/02 02:36:39;;;;;;;7.00;2.75;;;15.70;99.90;;;;;;5133410;27;20168;-54
2022/07/02 02:39:04;;;;;;;7.85;2.38;;;15.70;99.90;;;;;;5115116;27;20160;-54
2022/07/02 02:41:30;;;;;;;5.38;2.35;;;15.70;99.90;;;;;;5133263;27;20195;-54
2022/07/02 02:43:55;;;;;;;6.68;2.10;;;15.80;99.90;;;;;;5133281;27;20167;-54
2022/07/02 02:46:21;;;;;;;6.05;2.17;;;15.80;99.90;;;;;;5133725;27;20669;-54
2022/07/02 02:48:46;;;;;;;7.35;1.90;;;15.70;99.90;;;;;;5133191;27;20198;-54
2022/07/02 02:51:15;;;;;;;7.10;2.08;;;15.60;99.90;;;;;;5133217;27;20175;-55
2022/07/02 02:53:43;;;;;;;3.67;2.00;;;15.60;99.90;;;;;;5133225;27;20224;-54
2022/07/02 02:56:10;;;;;;;4.22;2.03;;;15.60;99.90;;;;;;5133109;27;20160;-54
2022/07/02 02:58:36;;;;;;;5.68;2.22;;;15.60;99.90;;;;;;5133331;27;20175;-54
2022/07/02 03:01:01;;;;;;;12.82;3.35;;;15.60;99.90;;;;;;5133105;27;20172;-54
2022/07/02 03:03:27;;;;;;;15.27;3.10;;;15.40;99.90;;;;;;5133132;27;20168;-54
2022/07/02 03:05:53;;;;;;;9.82;2.53;;;15.30;99.90;;;;;;5133489;27;20215;-54
2022/07/02 03:08:20;;;;;;;9.40;2.45;;;16.50;99.90;;;;;;5133536;27;20171;-53
2022/07/02 03:10:47;;;;;;;9.77;3.13;;;15.30;99.90;;;;;;5133190;27;20541;-53
2022/07/02 03:13:14;;;;;;;10.35;2.80;;;15.30;99.90;;;;;;5132909;27;20178;-54
2022/07/02 03:15:40;;;;;;;12.23;3.05;;;15.20;99.90;;;;;;5133158;28;20179;-53
2022/07/02 03:18:05;;;;;;;10.75;3.50;;;15.30;99.90;;;;;;5132907;28;20172;-54
2022/07/02 03:20:31;;;;;;;8.10;3.40;;;15.30;99.90;;;;;;5132672;27;20168;-54
2022/07/02 03:22:58;;;;;;;7.88;2.60;;;15.40;99.90;;;;;;5132869;28;20191;-54
2022/07/02 03:25:24;;;;;;;9.40;3.13;;;15.40;99.90;;;;;;5132442;28;20212;-54
2022/07/02 03:27:49;;;;;;;7.55;3.28;;;15.50;99.90;;;;;;5133008;28;20197;-54
2022/07/02 03:30:15;;;;;;;7.55;2.60;;;15.40;99.90;;;;;;5133028;28;20599;-54
2022/07/02 03:32:41;;;;;;;9.68;2.75;;;15.30;99.90;;;;;;5133067;28;20664;-54
2022/07/02 03:35:07;;;;;;;6.32;2.60;;;15.50;99.90;;;;;;5132743;28;20625;-54
2022/07/02 03:37:32;;;;;;;12.77;2.95;;;15.40;99.90;;;;;;5132659;28;20168;-54
2022/07/02 03:39:58;;;;;;;6.65;2.75;;;15.40;99.90;;;;;;5132858;28;20692;-54
2022/07/02 03:42:24;;;;;;;8.20;2.38;;;15.30;99.90;;;;;;5132608;28;20668;-54
2022/07/02 03:44:50;;;;;;;5.35;2.05;;;15.30;99.90;;;;;;5132879;28;20637;-54
2022/07/02 03:47:16;;;;;;;5.55;2.00;;;15.60;99.90;;;;;;5132496;28;20203;-54
2022/07/02 03:49:41;;;;;;;4.00;1.77;;;15.30;99.90;;;;;;5132805;28;20168;-54
2022/07/02 03:52:07;;;;;;;6.75;2.15;;;15.30;99.90;;;;;;5132487;28;20160;-54
2022/07/02 03:54:33;;;;;;;2.25;1.48;;;15.30;99.90;;;;;;5132526;28;20178;-54
2022/07/02 03:56:58;;;;;;;2.42;1.80;;;15.30;99.90;;;;;;5132454;28;20164;-54
2022/07/02 03:59:24;;;;;;;4.50;2.00;;;15.30;99.90;;;;;;5132443;28;20164;-54
2022/07/02 04:01:50;;;;;;;2.92;1.63;;;15.30;99.90;;;;;;5132757;28;20583;-54
2022/07/02 04:04:16;;;;;;;4.38;1.75;;;15.30;99.90;;;;;;5132527;28;20189;-54
2022/07/02 04:06:41;;;;;;;3.42;1.50;;;15.30;99.90;;;;;;5113872;28;20207;-54
2022/07/02 04:09:07;;;;;;;2.22;1.42;;;15.30;99.90;;;;;;5132473;28;20160;-54
2022/07/02 04:11:32;;;;;;;2.30;1.40;;;15.30;99.90;;;;;;5132381;28;20194;-54
2022/07/02 04:13:58;;;;;;;1.60;1.50;;;15.40;99.90;;;;;;5132307;28;20160;-54
2022/07/02 04:16:24;;;;;;;2.22;1.50;;;15.50;99.90;;;;;;5132330;28;20171;-55
2022/07/02 04:18:49;;;;;;;1.88;1.27;;;15.60;99.90;;;;;;5132821;28;20195;-55
2022/07/02 04:21:15;;;;;;;4.18;1.75;;;15.60;99.90;;;;;;5132270;28;20661;-55
2022/07/02 04:23:40;;;;;;;5.60;1.77;;;15.70;99.90;;;;;;5132228;28;20168;-55
2022/07/02 04:26:06;;;;;;;4.55;2.33;;;15.70;99.90;;;;;;5131953;28;20213;-55
2022/07/02 04:28:32;;;;;;;6.13;2.47;;;15.80;99.90;;;;;;5132209;28;20172;-55
2022/07/02 04:30:58;;;;;;;4.07;1.85;;;15.80;99.90;;;;;;5132347;27;20172;-56
2022/07/02 04:33:23;;;;;;;6.55;2.22;;;15.90;99.90;;;;;;5136078;27;20172;-54
2022/07/02 04:35:49;;;;;;;4.65;1.80;;;15.90;99.90;;;;;;5136379;27;20198;-56
2022/07/02 04:38:16;;;;;;;7.72;1.95;;;15.90;99.90;;;;;;5135933;27;20581;-55
2022/07/02 04:40:42;;;;;;;7.75;2.20;;;16.10;99.90;;;;;;5135675;27;20196;-56
2022/07/02 04:43:07;;;;;;;8.07;2.38;;;16.40;99.90;;;;;;5135618;27;20174;-55
2022/07/02 04:45:33;;;;;;;3.78;2.00;;;16.50;99.90;;;;;;5135839;27;20668;-55
2022/07/02 04:47:59;;;;;;;3.15;1.63;;;16.80;99.90;;;;;;5135557;27;20160;-55
2022/07/02 04:50:24;;;;;;;7.32;2.00;;;16.90;99.90;;;;;;5135545;27;20182;-54
2022/07/02 04:52:50;;;;;;;12.30;2.05;;;16.90;99.90;;;;;;5117485;27;20530;-55
2022/07/02 04:55:16;;;;;;;6.68;1.98;;;17.00;99.90;;;;;;5135476;27;20168;-55
2022/07/02 04:57:41;;;;;;;2.15;1.38;;;17.10;99.90;;;;;;5135765;27;20258;-55
2022/07/02 05:00:08;;;;;;;3.97;1.55;;;17.20;99.90;;;;;;5135447;27;20742;-55
2022/07/02 05:02:35;;;;;;;5.72;1.90;;;17.20;99.90;;;;;;5135276;27;20190;-55
2022/07/02 05:05:00;;;;;;;3.78;1.88;;;17.30;99.90;;;;;;5135339;27;20538;-55
2022/07/02 05:07:26;;;;;;;2.75;1.83;;;17.40;99.90;;;;;;5135044;27;20211;-56
2022/07/02 05:09:51;;;;;;;5.30;1.65;;;17.40;99.90;;;;;;5135678;27;20273;-55
2022/07/02 05:12:17;;;;;;;7.13;1.90;;;17.40;99.90;;;;;;5135122;27;20164;-57
2022/07/02 05:14:43;;;;;;;3.05;1.83;;;17.50;99.90;;;;;;5135307;27;21082;-55
2022/07/02 05:17:09;;;;;;;3.85;1.80;;;17.70;99.90;;;;;;5135278;27;20174;-55
2022/07/02 05:19:34;;;;;;;2.85;1.60;;;17.70;99.90;;;;;;5134930;27;20156;-55
2022/07/02 05:22:00;;;;;;;3.95;1.90;;;17.70;99.90;;;;;;5134885;27;20174;-55
2022/07/02 05:24:25;;;;;;;5.13;1.63;;;17.80;99.90;;;;;;5134813;27;20269;-55
2022/07/02 05:26:51;;;;;;;6.80;1.75;;;17.90;99.90;;;;;;5135073;27;20203;-55
2022/07/02 05:29:16;;;;;;;4.18;1.30;;;17.80;99.90;;;;;;5134731;27;20243;-55
2022/07/02 05:31:42;;;;;;;2.72;1.55;;;17.80;99.90;;;;;;5134705;27;20194;-55
2022/07/02 05:34:07;;;;;;;4.28;1.55;;;17.70;99.90;;;;;;5134413;27;20156;-54
2022/07/02 05:36:33;;;;;;;3.35;1.33;;;17.90;99.90;;;;;;5134433;27;20168;-55
2022/07/02 05:38:59;;;;;;;2.88;1.48;;;18.00;99.90;;;;;;5134592;27;20216;-55
2022/07/02 05:41:24;;;;;;;6.05;1.58;;;18.10;99.90;;;;;;5134431;27;20478;-55
2022/07/02 05:43:50;;;;;;;2.30;1.40;;;18.20;99.90;;;;;;5134516;27;20228;-55
2022/07/02 05:46:15;;;;;;;5.63;1.73;;;18.30;99.90;;;;;;5134339;27;20200;-56
2022/07/02 05:48:41;;;;;;;2.83;1.35;;;18.20;99.90;;;;;;5134346;27;20694;-55
2022/07/02 05:51:07;;;;;;;4.28;1.42;;;18.40;99.90;;;;;;5134390;27;20178;-55
2022/07/02 05:53:32;;;;;;;4.43;1.30;;;18.50;99.90;;;;;;5134256;27;20164;-56
2022/07/02 05:55:58;;;;;;;2.33;1.50;;;18.50;99.90;;;;;;5134204;27;20156;-55
2022/07/02 05:58:23;;;;;;;2.63;1.27;;;18.50;99.90;;;;;;5134234;27;20614;-54
2022/07/02 06:00:49;;;;;;;2.72;1.27;;;18.60;99.90;;;;;;5134329;27;20164;-56
2022/07/02 06:03:15;;;;;;;3.17;1.27;;;18.50;99.90;;;;;;5134079;27;20221;-55
2022/07/02 06:08:25;;;;;;;6.57;1.95;;;18.80;99.90;;;;;;5133899;27;20216;-55
2022/07/02 06:10:52;;;;;;;4.78;1.35;;;18.90;99.90;;;;;;5134046;27;20684;-54
2022/07/02 06:13:18;;;;;;;5.15;1.58;;;18.90;99.90;;;;;;5133629;27;20633;-55
2022/07/02 06:15:43;;;;;;;2.33;1.23;;;19.00;99.90;;;;;;5133552;27;20193;-54
2022/07/02 06:18:09;;;;;;;6.43;1.50;;;19.00;99.90;;;;;;5133454;27;20199;-55
2022/07/02 06:20:35;;;;;;;2.72;1.60;;;19.00;99.90;;;;;;5133683;27;20216;-55
2022/07/02 06:23:01;;;;;;;3.50;1.40;;;19.10;99.90;;;;;;5133921;27;20163;-54
2022/07/02 06:25:26;;;;;;;1.75;1.00;;;19.30;99.90;;;;;;5133291;27;20571;-54
2022/07/02 06:27:52;;;;;;;2.63;1.10;;;19.20;99.90;;;;;;5133993;27;20243;-55
2022/07/02 06:30:17;;;;;;;2.67;1.33;;;19.30;99.90;;;;;;5133485;27;20229;-55
2022/07/02 06:32:43;;;;;;;5.03;1.35;;;19.40;99.90;;;;;;5133424;27;20687;-55
2022/07/02 06:35:09;;;;;;;2.97;1.50;;;19.40;99.90;;;;;;5133461;27;20564;-55
2022/07/02 06:37:34;;;;;;;2.42;1.50;;;19.20;99.90;;;;;;5133277;27;20168;-55
2022/07/02 06:40:00;;;;;;;2.03;1.40;;;19.40;99.90;;;;;;5133652;27;20160;-54
2022/07/02 06:42:28;;;;;;;2.30;1.30;;;19.20;99.90;;;;;;5133380;27;20256;-54
2022/07/02 06:44:55;;;;;;;1.35;1.15;;;19.30;99.90;;;;;;5133176;27;20527;-54
2022/07/02 06:47:21;;;;;;;3.13;1.52;;;19.40;99.90;;;;;;5133377;27;20195;-55
2022/07/02 06:49:48;;;;;;;4.63;1.52;;;19.60;99.90;;;;;;5114760;28;20263;-55
2022/07/02 06:52:14;;;;;;;4.07;1.83;;;19.80;99.90;;;;;;5133141;27;20253;-56
2022/07/02 06:54:39;;;;;;;3.05;1.50;;;19.80;99.90;;;;;;5132485;27;20164;-56
2022/07/02 06:57:06;;;;;;;4.63;1.35;;;20.00;99.90;;;;;;5133243;27;20174;-56
2022/07/02 06:59:32;;;;;;;2.42;1.25;;;20.00;99.90;;;;;;5133091;27;20160;-56
2022/07/02 07:01:59;;;;;;;2.10;1.45;;;20.20;99.90;;;;;;5133076;27;20255;-55
2022/07/02 07:04:27;;;;;;;5.68;1.60;;;20.40;99.90;;;;;;5133046;27;20160;-56
2022/07/02 07:09:19;;;;;;;2.53;1.35;;;20.60;99.90;;;;;;5133228;27;20160;-56
2022/07/02 07:11:44;;;;;;;3.08;0.90;;;20.70;99.90;;;;;;5132936;27;20648;-55
2022/07/02 07:14:10;;;;;;;1.58;0.98;;;20.70;99.90;;;;;;5132877;27;20160;-55
2022/07/02 07:16:36;;;;;;;3.53;1.30;;;20.80;99.90;;;;;;5133163;27;20243;-55
2022/07/02 07:19:04;;;;;;;2.70;1.35;;;20.90;99.90;;;;;;5132850;28;20167;-55
2022/07/02 07:21:37;;;;;;;3.88;1.25;;;20.90;99.90;;;;;;5132786;28;20175;-55
2022/07/02 07:24:04;;;;;;;3.10;1.20;;;21.10;99.90;;;;;;5114081;28;20176;-55
2022/07/02 07:26:30;;;;;;;5.35;1.38;;;21.20;99.90;;;;;;5132759;28;20209;-55
2022/07/02 07:28:56;;;;;;;7.15;1.83;;;21.10;99.90;;;;;;5132758;28;20247;-54
2022/07/02 07:31:21;;;;;;;3.90;1.27;;;21.20;99.90;;;;;;5133387;28;20168;-55
2022/07/02 07:33:48;;;;;;;2.55;1.35;;;21.40;99.90;;;;;;5114316;28;20267;-55
2022/07/02 07:36:14;;;;;;;3.40;1.27;;;21.50;99.90;;;;;;5132703;28;20188;-55
2022/07/02 07:38:40;;;;;;;1.60;1.40;;;21.70;99.90;;;;;;5132658;28;20199;-55
2022/07/02 07:41:05;;;;;;;3.03;1.30;;;21.60;99.90;;;;;;5132894;28;20229;-55
2022/07/02 07:43:31;;;;;;;6.13;1.33;;;21.80;99.90;;;;;;5132620;28;20168;-55
2022/07/02 07:45:57;;;;;;;2.33;1.40;;;21.70;99.90;;;;;;5132750;28;20192;-55
2022/07/02 07:48:22;;;;;;;5.15;1.45;;;21.90;99.90;;;;;;5132856;28;20156;-55
2022/07/02 07:50:48;;;;;;;2.65;1.30;;;21.70;99.90;;;;;;5132733;28;20628;-55
2022/07/02 07:53:14;;;;;;;2.47;1.52;;;22.00;99.90;;;;;;5132449;28;20582;-55
2022/07/02 07:55:39;;;;;;;3.58;1.63;;;22.00;99.90;;;;;;5132555;28;20224;-55
2022/07/02 07:58:05;;;;;;;5.25;1.63;;;22.30;99.90;;;;;;5132465;28;20617;-54
2022/07/02 08:00:31;;;;;;;4.82;2.00;;;22.20;99.90;;;;;;5132413;28;20168;-55
2022/07/02 08:02:57;;;;;;;3.22;1.52;;;22.20;99.90;;;;;;5132520;28;20236;-54
2022/07/02 08:05:23;;;;;;;1.95;0.95;;;22.30;99.90;;;;;;5133920;27;20595;-55
2022/07/02 08:07:48;;;;;;;2.67;0.93;;;23.50;99.90;;;;;;5136723;27;20164;-54
2022/07/02 08:10:14;;;;;;;1.25;0.98;;;22.40;99.90;;;;;;5136487;27;20168;-56
2022/07/02 08:12:41;;;;;;;2.65;0.93;;;22.40;99.90;;;;;;5136268;27;20160;-55
2022/07/02 08:15:07;;;;;;;4.03;1.52;;;22.60;99.90;;;;;;5136343;27;20174;-54
2022/07/02 08:17:34;;;;;;;3.67;1.15;;;22.50;99.90;;;;;;5136082;27;20160;-55
2022/07/02 08:20:00;;;;;;;4.05;1.17;;;22.70;99.90;;;;;;5136336;27;20187;-55
2022/07/02 08:22:25;;;;;;;6.60;1.90;;;22.50;99.90;;;;;;5136271;27;20160;-55
2022/07/02 08:24:51;;;;;;;1.55;1.27;;;22.40;99.90;;;;;;5136326;27;20220;-55
2022/07/02 08:27:16;;;;;;;3.38;1.38;;;22.40;99.90;;;;;;5135910;27;20196;-56
2022/07/02 08:29:42;;;;;;;4.47;1.70;;;22.40;99.90;;;;;;5136011;27;20624;-55
2022/07/02 08:32:08;;;;;;;4.50;1.70;;;22.90;99.90;;;;;;5136174;27;20213;-55
2022/07/02 08:34:34;;;;;;;2.75;1.13;;;23.10;99.90;;;;;;5135937;27;20542;-55
2022/07/02 08:37:00;;;;;;;2.28;1.23;;;23.00;99.90;;;;;;5135762;27;20168;-55
2022/07/02 08:39:26;;;;;;;7.10;2.60;;;23.00;99.90;;;;;;5136009;27;20245;-55
2022/07/02 08:41:53;;;;;;;6.22;1.40;;;23.00;99.90;;;;;;5136159;27;20554;-55
2022/07/02 08:44:22;;;;;;;1.50;1.08;;;21.30;99.90;;;;;;5135868;27;20209;-54
2022/07/02 08:46:49;;;;;;;3.15;1.10;;;23.10;99.90;;;;;;5135566;27;20191;-57
2022/07/02 08:49:19;;;;;;;3.03;0.90;;;23.40;99.90;;;;;;5135560;27;20213;-57
2022/07/02 08:54:19;;;;;;;6.53;1.98;;;23.20;99.90;;;;;;5136098;27;20226;-57
2022/07/02 08:56:45;;;;;;;2.67;1.00;;;23.70;99.90;;;;;;5135421;27;20186;-57
2022/07/02 08:59:11;;;;;;;4.10;1.52;;;23.60;99.90;;;;;;5135337;27;20625;-55
2022/07/02 09:01:36;;;;;;;1.40;0.80;;;23.80;99.90;;;;;;5135270;27;20168;-55
2022/07/02 09:04:03;;;;;;;2.25;1.20;;;23.90;97.90;;;;;;5135565;27;20221;-57
2022/07/02 09:06:32;;;;;;;3.35;1.10;;;23.90;96.90;;;;;;5134891;27;20204;-57
2022/07/02 09:08:58;;;;;;;1.48;0.80;;;23.50;94.70;;;;;;5133462;27;20157;-57
2022/07/02 09:11:24;;;;;;;2.17;1.42;;;23.70;95.70;;;;;;5134735;27;20164;-55
2022/07/02 09:13:51;;;;;;;4.63;1.20;;;24.10;96.50;;;;;;5135602;27;20164;-57
2022/07/02 09:16:18;;;;;;;3.65;1.10;;;23.80;97.50;;;;;;5135274;27;20168;-57
2022/07/02 09:18:43;;;;;;;3.13;1.20;;;24.10;96.00;;;;;;5134240;27;20247;-57
2022/07/02 09:21:09;;;;;;;4.18;1.20;;;24.10;96.60;;;;;;5134884;27;20195;-57
2022/07/02 09:23:34;;;;;;;3.83;0.90;;;24.10;97.70;;;;;;5134912;27;20164;-57
2022/07/02 09:26:03;;;;;;;3.10;1.27;;;24.10;94.50;;;;;;5134560;27;20626;-57
2022/07/02 09:28:29;;;;;;;1.50;1.10;;;23.90;91.60;;;;;;5134810;27;20156;-58
2022/07/02 09:31:02;;;;;;;3.70;1.17;;;24.30;94.50;;;;;;5134797;27;20160;-55
2022/07/02 09:33:28;;;;;;;4.30;1.50;;;24.50;93.10;;;;;;5134795;27;20168;-55
2022/07/02 09:35:54;;;;;;;1.30;0.98;;;24.60;92.20;;;;;;5134678;27;20636;-55
2022/07/02 09:38:20;;;;;;;1.88;0.90;;;24.30;92.20;;;;;;5135200;27;20571;-55
2022/07/02 09:41:01;;;;;;;3.85;1.55;;;24.50;91.50;;;;;;5134507;27;20160;-56
2022/07/02 09:43:28;;;;;;;3.67;1.40;;;24.40;92.70;;;;;;5134665;27;20216;-56
2022/07/02 09:45:55;;;;;;;3.08;1.20;;;24.80;93.80;;;;;;5134357;27;20223;-55
2022/07/02 09:48:20;;;;;;;3.33;1.33;;;24.50;94.20;;;;;;5134677;27;20199;-55
2022/07/02 09:50:46;;;;;;;4.03;1.17;;;24.00;96.60;;;;;;5134685;27;20195;-55
2022/07/02 09:53:12;;;;;;;4.25;1.23;;;24.00;95.70;;;;;;5134323;27;20191;-57
2022/07/02 09:55:38;;;;;;;1.90;1.05;;;24.40;95.70;;;;;;5134321;27;20172;-55
2022/07/02 09:58:05;;;;;;;2.80;0.98;;;24.90;96.10;;;;;;5134013;27;20669;-56
2022/07/02 10:00:42;;;;;;;1.45;0.98;;;25.00;94.10;;;;;;5133744;27;20183;-55
2022/07/02 10:03:07;;;;;;;3.72;1.20;;;25.20;92.90;;;;;;5134054;27;20199;-55
2022/07/02 10:05:33;;;;;;;4.68;1.27;;;25.70;93.90;;;;;;5133726;27;20211;-55
2022/07/02 10:08:05;;;;;;;1.33;1.10;;;25.30;93.50;;;;;;5133627;27;20175;-56
2022/07/02 10:10:42;;;;;;;4.40;0.90;;;25.50;94.50;;;;;;5133877;27;20640;-55
2022/07/02 10:13:13;;;;;;;1.17;0.82;;;25.60;94.30;;;;;;5133903;27;20700;-55
2022/07/02 10:15:50;;;;;;;2.05;1.02;;;25.50;94.50;;;;;;5133576;27;20193;-55
2022/07/02 10:18:17;;;;;;;2.85;0.80;;;25.80;92.60;;;;;;5133668;27;20631;-56
2022/07/02 10:20:42;;;;;;;1.60;1.23;;;25.80;94.10;;;;;;5133529;27;20170;-56
2022/07/02 10:23:08;;;;;;;2.38;1.00;;;26.00;95.20;;;;;;5133347;27;20167;-55
2022/07/02 10:25:35;;;;;;;1.85;0.90;;;25.80;93.50;;;;;;5133391;27;20226;-58
2022/07/02 10:28:01;;;;;;;2.75;1.08;;;26.10;91.80;;;;;;5133561;27;20206;-57
2022/07/02 10:30:32;;;;;;;2.97;1.10;;;26.10;90.60;;;;;;5114186;27;20259;-57
2022/07/02 10:33:43;;;;;;;1.05;0.85;;;25.70;90.30;;;;;;5133427;27;20179;-57
2022/07/02 10:36:12;;;;;;;3.65;1.00;;;25.80;90.20;;;;;;5133321;27;20174;-57
2022/07/02 10:38:39;;;;;;;2.92;0.90;;;25.70;85.90;;;;;;5133256;27;20580;-57
2022/07/02 10:41:05;;;;;;;2.25;1.20;;;25.80;89.10;;;;;;5133270;27;20228;-57
2022/07/02 10:43:36;;;;;;;0.93;0.85;;;25.80;87.20;;;;;;5133148;27;20163;-56
2022/07/02 10:46:07;;;;;;;3.22;1.02;;;26.10;87.10;;;;;;5133358;27;20256;-55
2022/07/02 10:48:47;;;;;;;1.85;1.13;;;26.30;90.10;;;;;;5133271;27;20181;-57
2022/07/02 10:51:32;;;;;;;10.55;1.27;;;26.50;85.50;;;;;;5133411;27;20223;-56
2022/07/02 10:54:01;;;;;;;1.50;0.93;;;26.30;86.50;;;;;;5132850;27;20198;-56
2022/07/02 10:56:28;;;;;;;4.65;1.30;;;26.30;86.90;;;;;;5132720;27;20172;-57
2022/07/02 10:58:53;;;;;;;1.00;0.90;;;26.40;86.30;;;;;;5132394;27;20619;-57
2022/07/02 11:01:23;;;;;;;3.53;1.00;;;26.60;85.80;;;;;;5115038;27;20168;-56
2022/07/02 11:04:00;;;;;;;1.30;0.80;;;26.50;84.70;;;;;;5133072;27;20530;-56
2022/07/02 11:06:31;;;;;;;2.17;0.95;;;26.10;85.00;;;;;;5132598;27;20206;-54
2022/07/02 11:09:00;;;;;;;2.47;1.42;;;25.70;86.20;;;;;;5132580;27;20220;-56
2022/07/02 11:11:38;;;;;;;3.22;1.23;;;26.20;86.50;;;;;;5132466;27;20175;-55
2022/07/02 11:14:06;;;;;;;3.25;1.17;;;26.70;85.40;;;;;;5132413;27;20167;-56
2022/07/02 11:16:40;;;;;;;2.40;1.20;;;26.90;84.90;;;;;;5132168;27;20413;-58
2022/07/02 11:19:17;;;;;;;3.50;1.02;;;26.90;82.90;;;;;;5132402;27;20251;-55
2022/07/02 11:21:44;;;;;;;4.45;1.00;;;26.70;86.30;;;;;;5132463;28;20178;-56
2022/07/02 11:24:10;;;;;;;3.13;0.90;;;26.20;85.00;;;;;;5132448;28;20175;-55
2022/07/02 11:26:41;;;;;;;1.10;0.95;;;26.50;85.10;;;;;;5131939;28;20215;-58
2022/07/02 11:29:07;;;;;;;0.70;0.70;;;26.20;80.70;;;;;;5132593;28;20526;-57
2022/07/02 11:31:37;;;;;;;1.33;1.05;;;26.50;86.50;;;;;;5132446;28;20163;-54
2022/07/02 11:34:03;;;;;;;0.75;0.75;;;26.80;85.10;;;;;;5132809;28;20632;-49
2022/07/02 11:36:28;;;;;;;1.25;1.02;;;26.90;82.70;;;;;;5132210;28;20568;-59
2022/07/02 11:38:55;;;;;;;4.15;1.10;;;26.90;84.10;;;;;;5132211;28;20192;-56
2022/07/02 11:41:26;;;;;;;4.72;1.25;;;26.80;84.60;;;;;;5135603;27;20251;-55
2022/07/02 11:44:14;;;;;;;2.17;1.00;;;26.80;80.50;;;;;;5137447;27;20168;-53
2022/07/02 11:46:42;;;;;;;1.40;1.00;;;26.70;81.20;;;;;;5136679;27;20259;-52
2022/07/02 11:49:15;;;;;;;1.55;1.10;;;26.70;79.60;;;;;;5136938;27;20171;-54
2022/07/02 11:51:40;;;;;;;2.42;0.88;;;27.00;80.30;;;;;;5136701;27;20168;-54
2022/07/02 11:54:07;;;;;;;1.38;0.85;;;27.10;78.60;;;;;;5136561;27;20230;-55
2022/07/02 11:56:40;;;;;;;1.48;0.90;;;27.20;79.50;;;;;;5136114;27;20539;-54
2022/07/02 11:59:10;;;;;;;2.25;0.90;;;27.20;80.30;;;;;;5135666;27;20229;-54
2022/07/02 12:01:37;;;;;;;2.50;1.42;;;27.40;79.60;;;;;;5136602;27;20201;-55
2022/07/02 12:04:05;;;;;;;3.33;1.23;;;27.50;81.50;;;;;;5136514;27;20168;-55
2022/07/02 12:06:38;;;;;;;3.65;1.15;;;27.20;80.80;;;;;;5135968;27;20681;-55
2022/07/02 12:09:07;;;;;;;3.78;1.20;;;27.20;79.50;;;;;;5117678;27;20175;-55
2022/07/02 12:11:35;;;;;;;1.48;1.00;;;27.40;79.70;;;;;;5136041;27;20250;-55
2022/07/02 12:14:02;;;;;;;2.88;1.08;;;27.10;77.70;;;;;;5135899;27;20202;-55
2022/07/02 12:16:28;;;;;;;2.20;0.95;;;27.30;80.20;;;;;;5135890;27;20188;-55
2022/07/02 12:18:58;;;;;;;1.65;1.10;;;27.20;78.50;;;;;;5136095;27;20221;-56
2022/07/02 12:21:34;;;;;;;4.03;1.13;;;27.50;78.70;;;;;;5136185;27;20163;-57
2022/07/02 12:24:02;;;;;;;2.50;1.30;;;27.70;83.40;;;;;;5135866;27;20192;-57
2022/07/02 12:26:29;;;;;;;3.03;1.55;;;27.70;78.70;;;;;;5135528;27;20229;-57
2022/07/02 12:31:47;;;;;;;4.35;1.33;;;27.40;77.30;;;;;;5136029;27;20254;-57
2022/07/02 12:34:13;;;;;;;4.10;1.20;;;27.50;79.70;;;;;;5135909;27;20248;-57
2022/07/02 12:36:45;;;;;;;1.38;0.98;;;27.40;78.70;;;;;;5135711;27;20624;-56
2022/07/02 12:39:11;;;;;;;1.80;1.02;;;27.60;78.80;;;;;;5135771;27;20211;-56
2022/07/02 12:41:38;;;;;;;1.63;1.20;;;27.70;79.90;;;;;;5135822;27;20250;-56
2022/07/02 12:44:03;;;;;;;1.90;1.23;;;27.60;78.30;;;;;;5135017;27;20659;-57
2022/07/02 12:46:29;;;;;;;2.70;1.00;;;28.00;79.00;;;;;;5135794;27;20213;-57
2022/07/02 12:48:55;;;;;;;3.38;1.00;;;28.40;77.30;;;;;;5135743;27;20293;-57
2022/07/02 12:51:21;;;;;;;1.77;1.38;;;28.30;77.90;;;;;;5135250;27;20170;-57
2022/07/02 12:53:58;;;;;;;1.58;1.00;;;28.40;77.90;;;;;;5116171;27;20689;-56
2022/07/02 12:56:24;;;;;;;2.63;1.30;;;28.10;75.70;;;;;;5135287;27;20167;-57
2022/07/02 12:58:50;;;;;;;5.95;1.73;;;28.20;78.40;;;;;;5134632;27;20163;-57